Time;durP1;ratioP1;P1;durP2;ratioP2;P2;SDS_P1;SDS_P2;PMS_P1;PMS_P2;Temp;Humidity;BMP_temperature;BMP_pressure;BME280_temperature;BME280_humidity;BME280_pressure;Samples;Min_cycle;Max_cycle;Signal;HPM_P1;HPM_P2
2022/01/18 00:00:48;;;;;;;10.33;4.70;;;13.10;71.20;;;;;;5146479;28;20460;-31
2022/01/18 00:03:19;;;;;;;10.50;4.30;;;13.10;71.30;;;;;;5146161;28;20125;-31
2022/01/18 00:05:51;;;;;;;13.00;7.40;;;13.10;71.30;;;;;;5146120;28;20122;-31
2022/01/18 00:08:22;;;;;;;10.63;6.77;;;13.10;71.30;;;;;;5146642;28;20039;-30
2022/01/18 00:11:11;;;;;;;16.53;8.50;;;13.10;71.30;;;;;;5146215;28;20042;-31
2022/01/18 00:13:45;;;;;;;14.83;7.33;;;13.00;71.20;;;;;;5144981;28;20231;-31
2022/01/18 00:16:29;;;;;;;18.03;8.30;;;13.00;71.20;;;;;;5131924;28;20411;-30
2022/01/18 00:19:06;;;;;;;11.63;5.03;;;13.00;71.30;;;;;;5149565;28;20151;-31
2022/01/18 00:22:05;;;;;;;9.47;4.57;;;13.00;71.40;;;;;;5150192;28;20536;-31
2022/01/18 00:24:39;;;;;;;8.57;4.17;;;13.00;71.40;;;;;;5149578;28;20066;-32
2022/01/18 00:27:12;;;;;;;;;;;13.00;71.40;;;;;;5150107;28;20051;-31
2022/01/18 00:29:55;;;;;;;7.50;4.22;;;13.00;71.50;;;;;;5133203;28;19960;-31
2022/01/18 00:32:43;;;;;;;6.40;3.75;;;12.90;71.70;;;;;;5149307;28;20063;-31
2022/01/18 00:35:17;;;;;;;8.03;3.97;;;13.00;71.70;;;;;;5150103;28;20512;-31
2022/01/18 00:37:52;;;;;;;7.37;4.23;;;12.90;71.60;;;;;;5132257;28;20049;-33
2022/01/18 00:40:23;;;;;;;9.93;4.90;;;12.90;71.70;;;;;;5149585;28;20055;-31
2022/01/18 00:42:54;;;;;;;9.37;6.73;;;13.00;71.90;;;;;;5149451;28;20382;-32
2022/01/18 00:45:25;;;;;;;12.77;5.73;;;13.00;72.00;;;;;;5149259;28;20444;-31
2022/01/18 00:47:56;;;;;;;9.40;5.90;;;13.00;71.90;;;;;;5149563;28;20051;-31
2022/01/18 00:50:31;;;;;;;8.87;4.93;;;13.00;72.10;;;;;;5149251;28;20046;-32
2022/01/18 00:53:06;;;;;;;9.20;4.97;;;12.90;71.90;;;;;;5132556;28;20050;-32
2022/01/18 00:55:48;;;;;;;17.73;9.93;;;13.00;72.20;;;;;;5149067;28;20062;-31
2022/01/18 00:58:20;;;;;;;18.90;8.57;;;12.90;72.00;;;;;;5149631;28;20488;-31
2022/01/18 01:00:52;;;;;;;10.82;5.07;;;12.90;72.10;;;;;;5148723;28;20058;-32
2022/01/18 01:03:22;;;;;;;7.97;4.50;;;12.90;72.20;;;;;;5147951;28;20043;-32
2022/01/18 01:05:54;;;;;;;10.23;4.97;;;12.90;72.50;;;;;;5148780;28;20050;-31
2022/01/18 01:08:25;;;;;;;13.20;5.23;;;12.90;72.30;;;;;;5148772;28;20047;-31
2022/01/18 01:10:56;;;;;;;11.17;5.33;;;12.90;72.30;;;;;;5148861;28;20101;-33
2022/01/18 01:13:29;;;;;;;10.87;5.23;;;12.90;72.40;;;;;;5148752;28;20503;-32
2022/01/18 01:16:31;;;;;;;16.67;6.67;;;12.90;72.50;;;;;;5148699;28;20042;-31
2022/01/18 01:46:44;;;;;;;11.10;7.20;;;12.90;73.10;;;;;;5086835;29;20104;-32
2022/01/18 01:49:16;;;;;;;10.77;4.90;;;12.90;73.30;;;;;;5090525;29;20056;-31
2022/01/18 01:51:48;;;;;;;10.00;4.40;;;12.80;73.50;;;;;;5106135;29;20525;-31
2022/01/18 01:54:19;;;;;;;11.57;5.10;;;12.80;73.30;;;;;;5106112;29;20546;-33
2022/01/18 01:56:50;;;;;;;8.37;4.00;;;12.90;73.40;;;;;;5090173;29;20047;-31
2022/01/18 01:59:21;;;;;;;9.90;4.47;;;12.90;73.50;;;;;;5105723;29;20052;-31
2022/01/18 02:01:52;;;;;;;10.60;4.70;;;12.90;73.50;;;;;;5105991;29;20048;-31
2022/01/18 02:04:23;;;;;;;11.07;4.67;;;12.80;73.50;;;;;;5125273;28;20078;-31
2022/01/18 02:06:54;;;;;;;8.20;3.40;;;12.90;73.60;;;;;;5130306;28;20499;-31
2022/01/18 02:09:25;;;;;;;10.47;4.53;;;12.80;73.70;;;;;;5147780;28;20400;-31
2022/01/18 02:11:57;;;;;;;8.73;4.50;;;12.80;73.70;;;;;;5130442;28;20051;-32
2022/01/18 02:14:30;;;;;;;9.07;4.50;;;12.80;73.70;;;;;;5130607;28;20504;-32
2022/01/18 02:22:40;;;;;;;8.73;3.57;;;12.80;74.30;;;;;;5132979;28;20051;-31
2022/01/18 02:25:11;;;;;;;8.23;4.10;;;12.80;73.90;;;;;;5147234;28;20134;-30
2022/01/18 02:27:42;;;;;;;8.30;4.03;;;12.80;74.00;;;;;;5147166;28;20137;-32
2022/01/18 02:30:13;;;;;;;16.50;8.97;;;12.80;73.80;;;;;;5147264;28;20050;-30
2022/01/18 02:32:44;;;;;;;7.63;4.20;;;12.80;73.90;;;;;;5147344;28;20050;-31
2022/01/18 02:35:15;;;;;;;11.53;4.83;;;12.80;73.90;;;;;;5147331;28;20050;-31
2022/01/18 02:37:51;;;;;;;18.13;8.13;;;12.80;73.90;;;;;;5146435;28;20047;-32
2022/01/18 02:40:23;;;;;;;8.83;4.33;;;12.80;73.90;;;;;;5147055;28;20470;-31
2022/01/18 02:42:58;;;;;;;10.33;3.90;;;12.80;73.90;;;;;;5129843;28;20129;-33
2022/01/18 02:45:29;;;;;;;10.03;4.10;;;12.80;73.90;;;;;;5147346;28;20073;-32
2022/01/18 02:48:00;;;;;;;9.83;4.40;;;12.80;74.00;;;;;;5147331;28;20074;-31
2022/01/18 02:50:31;;;;;;;6.80;3.53;;;12.80;74.10;;;;;;5146960;28;20400;-32
2022/01/18 02:53:02;;;;;;;8.93;3.73;;;12.80;74.00;;;;;;5147376;28;20050;-31
2022/01/18 02:55:33;;;;;;;8.97;3.80;;;12.80;74.30;;;;;;5146741;28;20055;-31
2022/01/18 02:58:09;;;;;;;7.30;4.20;;;12.80;74.00;;;;;;5146945;28;20043;-32
2022/01/18 03:03:35;;;;;;;7.70;4.10;;;12.70;75.30;;;;;;5146582;28;20068;-31
2022/01/18 03:06:06;;;;;;;16.53;8.10;;;12.80;75.40;;;;;;5129417;28;20051;-30
2022/01/18 03:08:37;;;;;;;9.13;4.17;;;12.80;75.10;;;;;;5146701;28;20042;-31
2022/01/18 03:11:09;;;;;;;9.67;3.90;;;12.80;75.10;;;;;;5146362;28;20489;-32
2022/01/18 03:13:39;;;;;;;11.83;5.30;;;12.80;75.20;;;;;;5146721;28;20049;-31
2022/01/18 03:16:10;;;;;;;12.23;6.70;;;12.80;75.00;;;;;;5146306;28;20074;-31
2022/01/18 03:18:41;;;;;;;7.37;3.40;;;12.80;75.10;;;;;;5146603;28;20089;-33
2022/01/18 03:21:13;;;;;;;8.00;3.60;;;12.80;75.20;;;;;;5146623;28;20053;-33
2022/01/18 03:23:50;;;;;;;7.63;3.47;;;12.80;75.20;;;;;;5146490;28;20047;-30
2022/01/18 03:26:31;;;;;;;7.43;4.60;;;12.80;75.10;;;;;;5146813;28;20072;-32
2022/01/18 03:29:02;;;;;;;7.60;3.33;;;12.80;75.20;;;;;;5146895;28;20428;-31
2022/01/18 03:31:33;;;;;;;6.97;3.27;;;12.80;75.20;;;;;;5146596;28;20039;-32
2022/01/18 03:34:04;;;;;;;9.13;3.93;;;12.80;75.00;;;;;;5146403;28;20049;-31
2022/01/18 03:36:35;;;;;;;8.03;4.73;;;12.80;75.20;;;;;;5146516;28;20058;-31
2022/01/18 03:39:06;;;;;;;7.57;3.80;;;12.80;75.10;;;;;;5145855;28;20058;-32
2022/01/18 03:41:37;;;;;;;11.33;5.10;;;12.80;75.20;;;;;;5146334;28;20055;-31
2022/01/18 03:44:08;;;;;;;8.17;3.87;;;12.80;75.20;;;;;;5129333;28;20392;-31
2022/01/18 03:46:39;;;;;;;10.73;4.93;;;12.80;75.20;;;;;;5146224;28;20408;-32
2022/01/18 03:49:10;;;;;;;7.33;3.50;;;12.80;75.10;;;;;;5147708;28;20047;-31
2022/01/18 03:51:41;;;;;;;12.17;3.70;;;12.80;75.20;;;;;;5150406;28;20101;-31
2022/01/18 03:54:14;;;;;;;10.07;3.93;;;12.80;75.40;;;;;;5150352;28;20038;-31
2022/01/18 03:56:45;;;;;;;9.43;3.72;;;12.80;75.20;;;;;;5150282;28;20047;-32
2022/01/18 03:59:15;;;;;;;11.23;5.17;;;12.80;75.20;;;;;;5150092;28;20106;-32
2022/01/18 04:01:47;;;;;;;8.87;4.27;;;12.80;75.10;;;;;;5150159;28;20046;-31
2022/01/18 04:04:19;;;;;;;11.93;4.97;;;12.80;75.00;;;;;;5133268;28;20046;-31
2022/01/18 04:06:50;;;;;;;17.37;7.30;;;12.80;75.20;;;;;;5150442;28;20381;-31
2022/01/18 04:09:21;;;;;;;11.57;5.07;;;12.80;75.10;;;;;;5150011;28;20051;-32
2022/01/18 04:11:52;;;;;;;8.47;4.13;;;12.80;75.10;;;;;;5149962;28;20070;-31
2022/01/18 04:14:24;;;;;;;7.63;3.90;;;12.80;75.20;;;;;;5149955;28;20376;-31
2022/01/18 04:17:12;;;;;;;8.93;4.47;;;12.80;75.60;;;;;;5148682;28;20523;-32
2022/01/18 04:28:07;;;;;;;10.03;5.83;;;12.80;75.00;;;;;;5149879;28;20042;-33
2022/01/18 04:30:38;;;;;;;11.70;6.50;;;12.80;75.00;;;;;;5149722;28;20528;-33
2022/01/18 04:33:09;;;;;;;19.13;10.00;;;12.80;74.80;;;;;;5149302;28;20106;-31
2022/01/18 04:35:42;;;;;;;34.47;19.70;;;12.80;74.80;;;;;;5149718;28;20051;-31
2022/01/18 04:38:13;;;;;;;31.60;19.48;;;12.80;74.70;;;;;;5149191;28;20038;-34
2022/01/18 04:40:46;;;;;;;47.90;23.97;;;12.80;74.70;;;;;;5149215;28;20054;-33
2022/01/18 04:43:26;;;;;;;62.85;32.92;;;12.80;74.50;;;;;;5132777;28;20051;-32
2022/01/18 04:48:46;;;;;;;42.17;21.20;;;12.80;74.40;;;;;;5148859;28;20055;-30
2022/01/18 04:51:17;;;;;;;39.17;22.13;;;12.80;74.50;;;;;;5131955;28;20493;-30
2022/01/18 04:53:55;;;;;;;30.80;16.87;;;12.80;74.60;;;;;;5148872;28;20047;-33
2022/01/18 04:59:08;;;;;;;22.33;11.97;;;12.80;75.00;;;;;;5138527;28;20520;-31
2022/01/18 05:01:41;;;;;;;20.77;11.57;;;12.90;74.70;;;;;;5140974;28;20042;-31
2022/01/18 05:04:19;;;;;;;17.57;10.53;;;13.10;74.60;;;;;;5115241;28;20062;-31
2022/01/18 05:06:52;;;;;;;21.37;10.33;;;13.30;74.40;;;;;;5146357;28;20047;-31
2022/01/18 05:09:24;;;;;;;14.88;9.80;;;13.40;74.20;;;;;;5146451;28;20448;-31
2022/01/18 05:12:09;;;;;;;19.00;10.60;;;13.50;74.00;;;;;;5128975;28;20046;-31
2022/01/18 05:14:40;;;;;;;14.60;8.80;;;13.60;74.10;;;;;;5131561;28;20467;-31
2022/01/18 05:19:55;;;;;;;19.33;11.67;;;13.70;73.70;;;;;;5128635;28;20449;-31
2022/01/18 05:25:15;;;;;;;31.50;19.17;;;13.70;73.30;;;;;;5145708;28;20086;-31
2022/01/18 05:27:47;;;;;;;43.83;24.27;;;13.80;73.60;;;;;;5146233;28;20141;-31
2022/01/18 05:30:18;;;;;;;47.30;26.37;;;13.80;73.40;;;;;;5146214;28;20062;-30
2022/01/18 05:32:49;;;;;;;39.93;23.90;;;13.80;73.40;;;;;;5146057;28;20082;-33
2022/01/18 05:35:20;;;;;;;27.07;15.83;;;13.70;73.40;;;;;;5146474;28;20658;-32
2022/01/18 05:37:51;;;;;;;24.37;13.70;;;13.70;73.50;;;;;;5129021;28;20046;-31
2022/01/18 05:40:23;;;;;;;23.67;13.17;;;13.70;73.50;;;;;;5128604;28;20058;-31
2022/01/18 05:42:54;;;;;;;18.43;11.10;;;13.70;73.40;;;;;;5128851;28;20046;-32
2022/01/18 05:45:25;;;;;;;20.27;10.90;;;13.70;73.60;;;;;;5128703;28;20043;-31
2022/01/18 05:47:56;;;;;;;19.87;11.90;;;13.70;73.90;;;;;;5145968;28;20061;-31
2022/01/18 05:50:27;;;;;;;20.13;10.53;;;13.60;73.90;;;;;;5111980;28;20047;-31
2022/01/18 05:52:58;;;;;;;19.43;10.80;;;13.60;73.90;;;;;;5143709;28;20159;-32
2022/01/18 05:55:29;;;;;;;17.40;9.67;;;13.70;73.60;;;;;;5145900;28;20039;-31
2022/01/18 05:58:00;;;;;;;17.37;10.10;;;13.70;73.70;;;;;;5145296;28;20053;-30
2022/01/18 06:00:33;;;;;;;44.40;26.00;;;13.80;73.30;;;;;;5145852;28;20122;-31
2022/01/18 06:03:12;;;;;;;57.17;33.30;;;13.90;73.10;;;;;;5145626;28;20047;-32
2022/01/18 06:08:32;;;;;;;50.13;29.77;;;14.00;72.70;;;;;;5130837;28;20496;-32
2022/01/18 06:11:04;;;;;;;53.00;29.93;;;14.10;72.80;;;;;;5145320;28;20039;-31
2022/01/18 06:13:35;;;;;;;49.70;30.07;;;14.10;72.70;;;;;;5127339;28;20042;-32
2022/01/18 06:16:06;;;;;;;44.97;25.47;;;14.10;72.40;;;;;;5124186;28;20059;-31
2022/01/18 06:18:37;;;;;;;42.37;24.30;;;14.10;72.30;;;;;;5145233;28;20067;-32
2022/01/18 06:21:08;;;;;;;32.80;19.17;;;14.10;72.10;;;;;;5145136;28;20051;-31
2022/01/18 06:23:39;;;;;;;70.57;34.93;;;14.10;72.10;;;;;;5145152;28;20047;-32
2022/01/18 06:26:15;;;;;;;80.97;40.13;;;14.10;71.90;;;;;;5132970;28;20492;-32
2022/01/18 06:28:46;;;;;;;44.17;24.33;;;14.10;71.90;;;;;;5112409;28;20074;-32
2022/01/18 06:31:17;;;;;;;38.80;23.37;;;14.00;71.80;;;;;;5144924;28;20066;-32
2022/01/18 06:33:48;;;;;;;31.37;18.43;;;14.00;71.80;;;;;;5145019;28;20503;-32
2022/01/18 06:36:19;;;;;;;35.57;20.37;;;14.00;71.90;;;;;;5144917;28;20460;-31
2022/01/18 06:38:50;;;;;;;29.43;18.90;;;14.00;72.00;;;;;;5144813;28;20055;-32
2022/01/18 06:41:21;;;;;;;31.73;21.97;;;14.00;72.20;;;;;;5144889;28;20105;-31
2022/01/18 06:43:52;;;;;;;62.80;31.43;;;13.90;72.10;;;;;;5144582;28;20486;-32
2022/01/18 06:46:23;;;;;;;237.87;126.90;;;13.90;72.30;;;;;;5127903;28;20038;-31
2022/01/18 06:48:54;;;;;;;51.40;31.43;;;13.90;72.50;;;;;;5144580;28;20066;-32
2022/01/18 06:51:25;;;;;;;18.50;11.70;;;13.90;72.80;;;;;;5144933;28;20405;-32
2022/01/18 06:53:56;;;;;;;12.77;8.50;;;13.90;72.90;;;;;;5144765;28;20047;-33
2022/01/18 06:56:27;;;;;;;16.07;10.57;;;13.90;73.00;;;;;;5144791;28;20047;-33
2022/01/18 06:58:58;;;;;;;65.07;36.00;;;13.90;73.00;;;;;;5144763;28;20051;-32
2022/01/18 07:01:29;;;;;;;89.90;48.73;;;13.90;73.00;;;;;;5144583;28;20074;-33
2022/01/18 07:04:00;;;;;;;27.20;17.80;;;13.90;73.10;;;;;;5127332;28;20054;-34
2022/01/18 07:06:32;;;;;;;19.43;12.20;;;13.90;73.20;;;;;;5144309;28;20043;-32
2022/01/18 07:09:03;;;;;;;15.23;11.10;;;13.90;73.30;;;;;;5144704;28;20085;-33
2022/01/18 07:11:34;;;;;;;11.27;8.40;;;13.90;73.40;;;;;;5127159;28;20038;-32
2022/01/18 07:14:05;;;;;;;11.07;7.60;;;13.90;73.50;;;;;;5144925;28;20483;-33
2022/01/18 07:16:36;;;;;;;9.93;6.07;;;13.90;73.70;;;;;;5144243;28;20077;-32
2022/01/18 07:19:07;;;;;;;8.93;5.80;;;13.90;73.90;;;;;;5144268;28;20074;-31
2022/01/18 07:21:39;;;;;;;11.20;6.97;;;13.80;73.80;;;;;;5127380;28;20105;-30
2022/01/18 07:24:18;;;;;;;17.47;10.27;;;13.90;74.30;;;;;;5126635;28;20547;-31
2022/01/18 07:26:50;;;;;;;16.80;8.90;;;13.90;74.40;;;;;;5144265;28;20484;-31
2022/01/18 07:29:20;;;;;;;27.43;13.97;;;13.80;74.60;;;;;;5144277;28;20050;-31
2022/01/18 07:31:52;;;;;;;26.20;12.90;;;13.80;74.80;;;;;;5126862;28;20054;-32
2022/01/18 07:34:23;;;;;;;27.70;14.50;;;13.80;75.00;;;;;;5130936;28;20047;-32
2022/01/18 07:36:54;;;;;;;38.87;20.57;;;13.80;75.20;;;;;;5144384;28;20078;-31
2022/01/18 07:39:25;;;;;;;33.90;18.70;;;13.70;75.30;;;;;;5145538;28;20066;-33
2022/01/18 07:41:56;;;;;;;30.83;15.53;;;13.70;75.40;;;;;;5146048;28;20047;-32
2022/01/18 07:44:27;;;;;;;36.73;20.23;;;13.60;75.70;;;;;;5146330;28;20159;-30
2022/01/18 07:47:17;;;;;;;26.63;15.17;;;13.60;76.00;;;;;;5147048;28;20050;-34
2022/01/18 07:49:48;;;;;;;30.13;17.50;;;13.50;76.10;;;;;;5115197;28;20055;-31
2022/01/18 07:52:20;;;;;;;29.20;18.40;;;13.50;76.20;;;;;;5146184;28;20057;-32
2022/01/18 07:54:52;;;;;;;27.60;16.40;;;13.50;76.40;;;;;;5113859;28;20051;-31
2022/01/18 07:57:25;;;;;;;27.58;16.48;;;13.50;76.40;;;;;;5145993;28;20047;-31
2022/01/18 08:00:06;;;;;;;23.95;14.38;;;13.50;76.60;;;;;;5129493;28;20050;-33
2022/01/18 08:03:08;;;;;;;21.20;12.60;;;13.50;76.60;;;;;;5134656;28;20046;-31
2022/01/18 08:05:40;;;;;;;13.83;7.77;;;13.50;76.90;;;;;;5146141;28;20054;-31
2022/01/18 08:08:11;;;;;;;11.13;7.20;;;13.40;77.20;;;;;;5146178;28;20046;-33
2022/01/18 08:10:42;;;;;;;10.60;6.43;;;13.40;77.30;;;;;;5145955;28;20136;-32
2022/01/18 08:13:13;;;;;;;12.40;6.37;;;13.40;77.50;;;;;;5146317;28;20441;-32
2022/01/18 08:15:56;;;;;;;11.77;6.73;;;13.40;77.60;;;;;;5145970;28;20077;-32
2022/01/18 08:18:27;;;;;;;10.55;7.25;;;13.40;77.70;;;;;;5145857;28;20069;-32
2022/01/18 08:20:58;;;;;;;14.00;9.50;;;13.40;77.90;;;;;;5146318;28;20047;-33
2022/01/18 08:23:29;;;;;;;19.80;14.43;;;13.30;78.00;;;;;;5145985;28;20214;-31
2022/01/18 08:26:00;;;;;;;30.83;20.40;;;13.40;78.20;;;;;;5145902;28;20170;-33
2022/01/18 08:28:31;;;;;;;34.63;25.40;;;13.30;78.20;;;;;;5128946;28;20043;-31
2022/01/18 08:31:06;;;;;;;19.90;14.83;;;13.20;78.50;;;;;;5128244;28;20047;-32
2022/01/18 08:33:38;;;;;;;15.60;11.37;;;13.20;78.50;;;;;;5145301;28;20134;-32
2022/01/18 08:36:09;;;;;;;14.37;9.17;;;13.20;78.50;;;;;;5146844;28;20057;-31
2022/01/18 08:38:40;;;;;;;13.23;7.90;;;13.20;78.50;;;;;;5149244;28;20081;-31
2022/01/18 08:41:35;;;;;;;10.60;6.47;;;13.20;78.70;;;;;;5132296;28;20047;-31
2022/01/18 08:44:10;;;;;;;12.97;8.73;;;13.20;78.90;;;;;;5062508;29;20067;-32
2022/01/18 08:46:43;;;;;;;10.90;5.33;;;13.10;78.90;;;;;;5067928;29;20470;-32
2022/01/18 08:49:15;;;;;;;10.48;5.63;;;13.10;78.90;;;;;;5066015;29;20083;-32
2022/01/18 08:52:06;;;;;;;14.10;7.23;;;13.10;78.90;;;;;;5066111;29;20088;-31
2022/01/18 08:54:50;;;;;;;17.42;8.25;;;13.20;78.90;;;;;;5067033;29;20072;-31
2022/01/18 08:57:22;;;;;;;14.50;8.52;;;13.20;78.90;;;;;;5052328;29;20466;-31
2022/01/18 08:59:54;;;;;;;14.63;8.80;;;13.30;79.00;;;;;;5066179;29;20067;-34
2022/01/18 09:02:27;;;;;;;14.80;9.50;;;13.30;79.00;;;;;;5066884;29;20069;-32
2022/01/18 09:05:16;;;;;;;;;;;13.20;79.00;;;;;;5066788;29;20053;-32
2022/01/18 09:07:53;;;;;;;14.20;6.83;;;13.20;79.00;;;;;;5067855;29;19967;-33
2022/01/18 09:10:47;;;;;;;14.80;8.30;;;13.10;79.10;;;;;;5065161;29;20071;-32
2022/01/18 09:13:25;;;;;;;15.90;9.10;;;13.10;79.20;;;;;;5061797;29;20076;-30
2022/01/18 09:15:56;;;;;;;18.20;9.83;;;13.10;79.20;;;;;;5099739;29;20467;-31
2022/01/18 09:18:27;;;;;;;19.17;9.47;;;13.10;79.50;;;;;;5104057;29;20054;-32
2022/01/18 09:20:59;;;;;;;13.50;6.80;;;13.10;79.60;;;;;;5104178;29;20099;-33
2022/01/18 09:23:30;;;;;;;15.37;7.43;;;13.20;79.50;;;;;;5103953;29;20576;-32
2022/01/18 09:26:01;;;;;;;13.53;7.23;;;13.20;79.40;;;;;;5103457;29;20481;-32
2022/01/18 09:28:34;;;;;;;17.07;7.83;;;13.20;79.60;;;;;;5103734;29;20039;-32
2022/01/18 09:31:07;;;;;;;13.88;7.13;;;13.30;79.30;;;;;;5104112;29;20517;-30
2022/01/18 09:33:39;;;;;;;14.30;7.57;;;13.40;79.30;;;;;;5103870;29;20103;-31
2022/01/18 09:36:19;;;;;;;15.90;6.53;;;13.40;79.40;;;;;;5103940;29;20082;-32
2022/01/18 09:38:54;;;;;;;12.43;5.73;;;13.40;79.50;;;;;;5072925;29;20065;-31
2022/01/18 09:41:30;;;;;;;15.50;7.93;;;13.40;79.40;;;;;;5117022;29;20537;-33
2022/01/18 09:44:05;;;;;;;16.57;8.83;;;13.30;79.30;;;;;;5124516;29;20129;-31
2022/01/18 09:46:37;;;;;;;22.17;11.37;;;13.20;79.30;;;;;;5124332;28;20098;-33
2022/01/18 09:49:08;;;;;;;14.43;6.97;;;13.20;79.30;;;;;;5125457;28;20047;-32
2022/01/18 09:51:41;;;;;;;39.83;24.47;;;13.20;79.30;;;;;;5125871;28;20078;-31
2022/01/18 09:54:12;;;;;;;18.08;14.13;;;13.20;79.50;;;;;;5119634;29;20055;-32
2022/01/18 09:56:43;;;;;;;11.53;7.60;;;13.20;79.40;;;;;;5117583;29;20122;-31
2022/01/18 09:59:14;;;;;;;11.23;5.90;;;13.20;79.60;;;;;;5124115;29;20058;-31
2022/01/18 10:01:45;;;;;;;12.70;6.87;;;13.20;79.50;;;;;;5125406;28;20054;-30
2022/01/18 10:04:21;;;;;;;13.57;8.73;;;13.20;79.60;;;;;;5125633;28;20047;-31
2022/01/18 10:06:59;;;;;;;10.40;5.63;;;13.20;79.70;;;;;;5140433;28;20047;-32
2022/01/18 10:09:31;;;;;;;12.17;7.67;;;13.10;79.60;;;;;;5127251;28;20457;-32
2022/01/18 10:12:12;;;;;;;36.60;20.30;;;13.10;79.80;;;;;;5127169;28;20047;-32
2022/01/18 10:14:55;;;;;;;29.80;17.00;;;13.10;79.70;;;;;;5127349;28;20147;-32
2022/01/18 10:17:37;;;;;;;24.33;12.45;;;13.10;79.80;;;;;;5127520;28;20452;-34
2022/01/18 10:20:16;;;;;;;24.73;9.60;;;13.00;79.50;;;;;;5127370;28;20568;-32
2022/01/18 10:22:50;;;;;;;14.03;8.77;;;13.00;80.00;;;;;;5127415;28;20062;-31
2022/01/18 10:25:23;;;;;;;32.37;10.93;;;13.00;79.50;;;;;;5127073;28;20481;-31
2022/01/18 10:27:56;;;;;;;11.50;5.30;;;13.00;80.00;;;;;;5126981;28;20047;-32
2022/01/18 10:30:39;;;;;;;14.40;6.67;;;13.00;79.50;;;;;;5127425;28;20133;-32
2022/01/18 10:33:14;;;;;;;;;;;13.00;79.60;;;;;;5127937;28;20043;-32
2022/01/18 10:36:14;;;;;;;10.23;4.67;;;13.00;79.50;;;;;;5127125;28;20280;-32
2022/01/18 10:38:49;;;;;;;16.47;11.10;;;12.90;79.40;;;;;;5132525;28;20058;-31
2022/01/18 10:41:23;;;;;;;10.17;5.87;;;13.00;79.40;;;;;;5146591;28;20047;-32
2022/01/18 10:44:06;;;;;;;12.23;6.80;;;13.00;79.60;;;;;;5147187;28;20043;-32
2022/01/18 10:46:39;;;;;;;10.23;6.17;;;12.90;79.30;;;;;;5147012;28;20050;-31
2022/01/18 10:49:31;;;;;;;24.42;10.98;;;12.90;79.30;;;;;;5146474;28;20055;-31
2022/01/18 10:52:18;;;;;;;21.37;11.53;;;12.90;79.30;;;;;;5104745;29;20055;-31
2022/01/18 10:54:57;;;;;;;72.00;41.00;;;12.90;79.30;;;;;;5089099;29;20055;-32
2022/01/18 10:57:30;;;;;;;41.37;26.17;;;12.80;79.20;;;;;;5088589;29;20047;-32
2022/01/18 11:00:16;;;;;;;11.23;7.03;;;12.90;79.40;;;;;;5088136;29;20472;-32
2022/01/18 11:02:52;;;;;;;8.37;3.60;;;12.80;79.30;;;;;;5104471;29;20052;-32
2022/01/18 11:05:25;;;;;;;13.17;7.57;;;12.90;79.30;;;;;;5088884;29;20063;-32
2022/01/18 11:07:57;;;;;;;10.57;6.45;;;12.90;79.50;;;;;;5104192;29;20095;-31
2022/01/18 11:10:37;;;;;;;10.53;5.63;;;12.90;80.10;;;;;;5089033;29;20059;-33
2022/01/18 11:13:13;;;;;;;8.23;4.60;;;12.90;79.30;;;;;;5102683;29;20540;-31
2022/01/18 11:15:51;;;;;;;14.63;10.50;;;12.90;79.50;;;;;;5095391;29;20048;-32
2022/01/18 11:18:29;;;;;;;11.73;7.60;;;12.90;79.70;;;;;;5100574;29;20514;-31
2022/01/18 11:21:02;;;;;;;14.53;6.07;;;12.90;79.60;;;;;;5086508;29;20060;-32
2022/01/18 11:23:47;;;;;;;25.77;9.70;;;12.90;79.10;;;;;;5115287;28;20063;-33
2022/01/18 11:26:55;;;;;;;10.20;5.27;;;12.90;79.50;;;;;;5042671;29;20061;-31
2022/01/18 11:29:26;;;;;;;75.50;13.60;;;12.90;79.20;;;;;;5042933;29;20160;-34
2022/01/18 11:31:57;;;;;;;11.47;6.00;;;12.90;79.40;;;;;;5043564;29;20057;-32
2022/01/18 11:34:56;;;;;;;11.10;5.13;;;12.90;79.30;;;;;;5043710;29;20084;-31
2022/01/18 11:37:47;;;;;;;11.67;5.23;;;12.90;79.10;;;;;;5015017;29;20056;-32
2022/01/18 11:40:18;;;;;;;7.40;4.40;;;12.90;79.60;;;;;;5028152;29;20230;-31
2022/01/18 11:42:54;;;;;;;9.30;4.67;;;12.90;79.60;;;;;;5043564;29;20159;-32
2022/01/18 11:45:25;;;;;;;11.37;4.90;;;12.90;78.90;;;;;;5028066;29;20049;-31
2022/01/18 11:48:06;;;;;;;10.47;4.40;;;12.90;78.90;;;;;;5042673;29;20065;-33
2022/01/18 11:50:41;;;;;;;8.30;4.53;;;12.90;78.90;;;;;;5043440;29;20084;-32
2022/01/18 11:53:41;;;;;;;10.50;4.90;;;12.90;79.10;;;;;;5043515;29;20048;-33
2022/01/18 11:56:33;;;;;;;9.43;4.97;;;13.00;79.00;;;;;;5043378;29;20053;-33
2022/01/18 11:59:17;;;;;;;24.65;6.05;;;12.90;78.90;;;;;;5029640;29;20092;-32
2022/01/18 12:01:52;;;;;;;9.13;4.60;;;12.90;78.80;;;;;;5043777;29;20136;-33
2022/01/18 12:04:40;;;;;;;12.30;6.33;;;12.90;79.00;;;;;;5030044;29;20059;-32
2022/01/18 12:07:30;;;;;;;12.40;5.80;;;12.90;79.00;;;;;;5045492;29;20057;-31
2022/01/18 12:10:06;;;;;;;16.40;8.87;;;12.90;78.70;;;;;;5027584;29;20062;-32
2022/01/18 12:12:45;;;;;;;35.90;20.57;;;12.90;78.80;;;;;;5030331;29;20053;-31
2022/01/18 12:15:16;;;;;;;52.93;29.93;;;12.90;78.80;;;;;;5030016;29;20073;-32
2022/01/18 12:17:53;;;;;;;48.33;28.80;;;12.90;78.70;;;;;;5030607;29;20054;-32
2022/01/18 12:20:46;;;;;;;27.50;17.93;;;13.00;79.20;;;;;;5030601;29;20053;-31
2022/01/18 12:23:18;;;;;;;20.00;11.93;;;13.00;78.90;;;;;;5030722;29;20443;-31
2022/01/18 12:26:01;;;;;;;21.80;14.57;;;12.90;78.80;;;;;;5014561;29;20081;-32
2022/01/18 12:34:29;;;;;;;14.90;9.97;;;13.00;78.80;;;;;;5029383;29;20064;-32
2022/01/18 12:37:11;;;;;;;16.30;8.30;;;13.00;78.60;;;;;;5013076;29;20088;-33
2022/01/18 12:40:10;;;;;;;18.63;8.63;;;13.00;78.60;;;;;;5028296;29;20448;-31
2022/01/18 12:45:19;;;;;;;20.57;13.07;;;13.00;78.80;;;;;;5029661;29;20053;-32
2022/01/18 12:47:52;;;;;;;;;;;13.00;78.30;;;;;;5030055;29;20046;-32
2022/01/18 12:50:24;;;;;;;16.95;10.88;;;13.00;78.00;;;;;;5028860;29;20022;-32
2022/01/18 12:52:57;;;;;;;35.17;21.73;;;13.10;78.10;;;;;;5028854;29;20053;-31
2022/01/18 12:55:46;;;;;;;54.53;31.73;;;13.10;78.30;;;;;;5029462;29;20301;-31
2022/01/18 12:58:21;;;;;;;18.73;12.53;;;13.10;78.50;;;;;;5029216;29;20049;-31
2022/01/18 13:01:01;;;;;;;17.50;11.97;;;13.00;78.30;;;;;;5018852;29;20053;-32
2022/01/18 13:03:39;;;;;;;14.67;9.83;;;13.00;77.90;;;;;;5109437;29;20044;-31
2022/01/18 13:06:12;;;;;;;8.27;4.00;;;13.00;77.70;;;;;;5109854;29;20438;-34
2022/01/18 13:08:47;;;;;;;17.33;11.57;;;13.10;78.10;;;;;;5107994;29;20052;-32
2022/01/18 13:11:22;;;;;;;13.50;7.53;;;13.10;77.90;;;;;;5110485;29;20446;-33
2022/01/18 13:14:03;;;;;;;25.17;19.73;;;13.10;77.90;;;;;;5125471;29;20057;-31
2022/01/18 13:25:05;;;;;;;15.43;8.27;;;13.20;77.50;;;;;;5126638;29;20047;-30
2022/01/18 13:27:45;;;;;;;10.40;4.53;;;13.20;77.60;;;;;;5125211;29;20043;-31
2022/01/18 13:30:23;;;;;;;24.67;12.03;;;13.20;77.70;;;;;;5125082;29;20141;-32
2022/01/18 13:32:57;;;;;;;18.73;9.73;;;13.30;77.50;;;;;;5126537;28;20118;-32
2022/01/18 13:35:32;;;;;;;18.27;10.87;;;13.40;77.70;;;;;;5124775;29;20142;-32
2022/01/18 13:38:04;;;;;;;18.50;10.73;;;13.40;77.70;;;;;;5126220;28;20047;-33
2022/01/18 13:41:08;;;;;;;15.77;9.07;;;13.40;77.60;;;;;;5125822;28;20485;-31
2022/01/18 13:43:57;;;;;;;17.67;10.60;;;13.50;77.40;;;;;;5085822;29;20116;-33
2022/01/18 13:46:29;;;;;;;10.53;6.30;;;13.50;77.60;;;;;;5050590;29;20061;-32
2022/01/18 13:49:06;;;;;;;14.13;7.93;;;13.50;77.10;;;;;;5067457;29;20068;-32
2022/01/18 13:51:37;;;;;;;10.13;5.43;;;13.50;77.10;;;;;;5051274;29;20048;-31
2022/01/18 13:54:10;;;;;;;9.67;6.17;;;13.50;77.00;;;;;;5066822;29;20092;-31
2022/01/18 13:56:47;;;;;;;;;;;13.50;76.70;;;;;;5067143;29;20053;-31
2022/01/18 13:59:20;;;;;;;19.87;13.80;;;13.50;76.40;;;;;;5051117;29;20343;-31
2022/01/18 14:01:51;;;;;;;24.65;16.20;;;13.50;76.30;;;;;;5051419;29;20048;-32
2022/01/18 14:04:23;;;;;;;29.63;19.23;;;13.60;76.60;;;;;;5066714;29;20502;-32
2022/01/18 14:06:56;;;;;;;26.92;19.20;;;13.60;76.70;;;;;;5066695;29;20464;-32
2022/01/18 14:09:27;;;;;;;31.20;21.40;;;13.60;76.50;;;;;;5066904;29;20132;-32
2022/01/18 14:11:58;;;;;;;31.43;18.80;;;13.60;76.90;;;;;;5066606;29;20052;-31
2022/01/18 14:14:31;;;;;;;44.57;22.27;;;13.60;77.50;;;;;;5066736;29;20384;-32
2022/01/18 14:17:06;;;;;;;34.55;16.38;;;13.60;77.40;;;;;;5051080;29;20057;-32
2022/01/18 14:19:39;;;;;;;37.87;16.23;;;13.60;77.30;;;;;;5066628;29;20491;-31
2022/01/18 14:22:24;;;;;;;47.45;28.35;;;13.60;77.10;;;;;;5066722;29;20063;-32
2022/01/18 14:24:58;;;;;;;43.80;19.27;;;13.60;77.40;;;;;;5050887;29;20084;-31
2022/01/18 14:27:42;;;;;;;48.47;23.77;;;13.50;77.70;;;;;;5051821;29;20105;-31
2022/01/18 14:30:18;;;;;;;;;;;13.50;78.40;;;;;;5066971;29;20415;-32